createdAt,value
2022-10-04T00:00:27.379Z,16.14
2022-10-04T00:03:06.831Z,16.13
2022-10-04T00:05:42.512Z,16.11
2022-10-04T00:08:27.764Z,16.08
2022-10-04T00:11:08.861Z,16.08
2022-10-04T00:13:50.353Z,16.09
2022-10-04T00:16:29.586Z,16.10
2022-10-04T00:19:20.978Z,16.06
2022-10-04T00:22:20.002Z,16.09
2022-10-04T00:25:18.818Z,16.09
2022-10-04T00:28:32.471Z,16.07
2022-10-04T00:31:15.624Z,16.07
2022-10-04T00:33:50.471Z,16.07
2022-10-04T00:36:56.762Z,16.05
2022-10-04T00:39:43.752Z,16.02
2022-10-04T00:42:37.588Z,15.94
2022-10-04T00:45:17.925Z,15.88
2022-10-04T00:48:11.671Z,15.96
2022-10-04T00:50:51.312Z,15.90
2022-10-04T00:53:42.357Z,15.89
2022-10-04T00:56:20.875Z,15.90
2022-10-04T00:59:15.074Z,15.82
2022-10-04T01:01:52.193Z,15.95
2022-10-04T01:04:38.066Z,15.88
2022-10-04T01:07:14.928Z,15.81
2022-10-04T01:09:54.391Z,15.84
2022-10-04T01:12:42.289Z,15.82
2022-10-04T01:15:20.162Z,15.79
2022-10-04T01:18:12.202Z,15.72
2022-10-04T01:20:56.154Z,15.79
2022-10-04T01:23:39.062Z,15.71
2022-10-04T01:26:41.129Z,15.69
2022-10-04T01:29:17.171Z,15.68
2022-10-04T01:31:52.439Z,15.68
2022-10-04T01:34:28.233Z,15.65
2022-10-04T01:37:01.948Z,15.63
2022-10-04T01:39:36.042Z,15.64
2022-10-04T01:42:12.058Z,15.68
2022-10-04T01:44:51.457Z,15.58
2022-10-04T01:47:32.582Z,15.60
2022-10-04T01:50:15.649Z,15.61
2022-10-04T01:52:52.965Z,15.56
2022-10-04T01:55:32.571Z,15.57
2022-10-04T01:58:12.772Z,15.55
2022-10-04T02:00:52.422Z,15.59
2022-10-04T02:03:33.063Z,15.58
2022-10-04T02:06:08.977Z,15.50
2022-10-04T02:08:49.440Z,15.49
2022-10-04T02:11:24.488Z,15.50
2022-10-04T02:13:58.133Z,15.50
2022-10-04T02:16:33.002Z,15.47
2022-10-04T02:19:06.357Z,15.44
2022-10-04T02:21:39.567Z,15.48
2022-10-04T02:24:13.297Z,15.48
2022-10-04T02:26:51.613Z,15.43
2022-10-04T02:29:24.781Z,15.42
2022-10-04T02:32:15.555Z,15.40
2022-10-04T02:34:48.926Z,15.43
2022-10-04T02:37:24.204Z,15.42
2022-10-04T02:40:05.827Z,15.33
2022-10-04T02:42:47.652Z,15.42
2022-10-04T02:45:26.087Z,15.34
2022-10-04T02:48:04.235Z,15.33
2022-10-04T02:50:46.367Z,15.34
2022-10-04T02:53:24.849Z,15.31
2022-10-04T02:55:58.741Z,15.41
2022-10-04T02:58:33.926Z,15.44
2022-10-04T03:01:07.657Z,15.42
2022-10-04T03:03:45.287Z,15.41
2022-10-04T03:06:20.914Z,15.40
2022-10-04T03:09:15.114Z,15.34
2022-10-04T03:11:50.556Z,15.36
2022-10-04T03:14:27.689Z,15.33
2022-10-04T03:17:04.249Z,15.38
2022-10-04T03:19:38.579Z,15.30
2022-10-04T03:22:12.728Z,15.34
2022-10-04T03:24:48.256Z,15.35
2022-10-04T03:27:24.963Z,15.36
2022-10-04T03:30:00.143Z,15.34
2022-10-04T03:32:34.289Z,15.32
2022-10-04T03:35:14.095Z,15.30
2022-10-04T03:37:47.748Z,15.31
2022-10-04T03:40:26.000Z,15.37
2022-10-04T03:43:01.618Z,15.29
2022-10-04T03:45:36.063Z,15.28
2022-10-04T03:48:14.104Z,15.28
2022-10-04T03:50:48.962Z,15.28
2022-10-04T03:53:30.196Z,15.30
2022-10-04T03:56:09.995Z,15.28
2022-10-04T03:58:43.689Z,15.30
2022-10-04T04:01:28.700Z,15.23
2022-10-04T04:04:06.111Z,15.26
2022-10-04T04:06:44.070Z,15.24
2022-10-04T04:09:23.273Z,15.20
2022-10-04T04:11:58.626Z,15.22
2022-10-04T04:14:31.619Z,15.22
2022-10-04T04:17:20.004Z,15.20
2022-10-04T04:19:54.447Z,15.17
2022-10-04T04:22:31.310Z,15.16
2022-10-04T04:25:08.297Z,15.16
2022-10-04T04:27:44.782Z,15.16
2022-10-04T04:30:19.283Z,15.12
2022-10-04T04:32:57.564Z,15.16
2022-10-04T04:35:33.405Z,15.16
2022-10-04T04:38:15.219Z,15.13
2022-10-04T04:40:57.571Z,15.09
2022-10-04T04:43:30.955Z,15.12
2022-10-04T04:46:26.029Z,15.12
2022-10-04T04:49:02.401Z,15.08
2022-10-04T04:51:35.145Z,15.09
2022-10-04T04:54:08.744Z,15.09
2022-10-04T04:56:44.015Z,15.05
2022-10-04T04:59:17.928Z,15.09
2022-10-04T05:01:51.565Z,15.08
2022-10-04T05:04:26.239Z,15.04
2022-10-04T05:07:10.539Z,15.03
2022-10-04T05:09:43.508Z,15.05
2022-10-04T05:12:21.266Z,15.03
2022-10-04T05:14:55.454Z,15.04
2022-10-04T05:17:35.186Z,14.99
2022-10-04T05:20:16.559Z,14.99
2022-10-04T05:22:51.428Z,14.97
2022-10-04T05:25:29.312Z,14.98
2022-10-04T05:28:03.042Z,15.05
2022-10-04T05:31:02.456Z,15.02
2022-10-04T05:33:40.579Z,14.92
2022-10-04T05:36:46.144Z,14.89
2022-10-04T05:39:27.846Z,14.91
2022-10-04T05:42:07.848Z,14.86
2022-10-04T05:44:47.776Z,14.88
2022-10-04T05:47:26.553Z,14.87
2022-10-04T05:50:01.156Z,14.89
2022-10-04T05:52:38.436Z,14.87
2022-10-04T05:55:23.237Z,14.85
2022-10-04T05:58:19.281Z,14.84
2022-10-04T06:01:13.083Z,14.83
2022-10-04T06:04:02.836Z,14.89
2022-10-04T06:06:41.329Z,14.85
2022-10-04T06:09:32.263Z,14.85
2022-10-04T06:12:13.334Z,14.82
2022-10-04T06:15:03.585Z,14.79
2022-10-04T06:18:15.177Z,14.81
2022-10-04T06:21:00.197Z,14.83
2022-10-04T06:23:37.595Z,14.80
2022-10-04T06:26:14.996Z,14.81
2022-10-04T06:28:52.201Z,14.82
2022-10-04T06:31:55.385Z,14.81
2022-10-04T06:34:53.688Z,14.84
2022-10-04T06:37:44.020Z,14.85
2022-10-04T06:40:37.021Z,14.78
2022-10-04T06:43:31.510Z,14.76
2022-10-04T06:46:19.880Z,14.75
2022-10-04T06:49:17.277Z,14.76
2022-10-04T06:52:07.249Z,14.73
2022-10-04T06:54:55.306Z,14.77
2022-10-04T06:57:46.523Z,14.77
2022-10-04T07:00:25.499Z,14.80
2022-10-04T07:03:03.659Z,14.85
2022-10-04T07:05:43.566Z,14.88
2022-10-04T07:08:31.499Z,14.93
2022-10-04T07:11:13.603Z,14.95
2022-10-04T07:13:56.773Z,15.03
2022-10-04T07:16:41.153Z,15.04
2022-10-04T07:19:43.527Z,15.04
2022-10-04T07:22:22.654Z,15.11
2022-10-04T07:25:08.267Z,15.13
2022-10-04T07:27:49.189Z,15.20
2022-10-04T07:30:21.293Z,15.26
2022-10-04T07:32:58.256Z,15.25
2022-10-04T07:35:36.209Z,15.32
2022-10-04T07:38:17.030Z,15.43
2022-10-04T07:41:04.779Z,15.42
2022-10-04T07:43:48.087Z,15.45
2022-10-04T07:46:28.887Z,15.73
2022-10-04T07:49:03.156Z,15.73
2022-10-04T07:51:44.887Z,15.86
2022-10-04T07:54:22.149Z,15.71
2022-10-04T07:56:58.397Z,15.93
2022-10-04T07:59:42.078Z,16.06
2022-10-04T08:02:28.882Z,16.10
2022-10-04T08:05:20.897Z,16.02
2022-10-04T08:08:16.583Z,16.11
2022-10-04T08:10:57.709Z,15.99
2022-10-04T08:13:39.173Z,15.88
2022-10-04T08:16:20.302Z,15.93
2022-10-04T08:19:07.185Z,15.93
2022-10-04T08:21:53.619Z,16.27
2022-10-04T08:24:34.705Z,16.51
2022-10-04T08:27:34.688Z,16.63
2022-10-04T08:30:13.099Z,16.72
2022-10-04T08:33:10.850Z,16.81
2022-10-04T08:35:56.881Z,16.87
2022-10-04T08:38:43.264Z,16.93
2022-10-04T08:41:44.903Z,16.95
2022-10-04T08:44:50.395Z,17.08
2022-10-04T08:47:55.007Z,17.16
2022-10-04T08:51:05.694Z,17.30
2022-10-04T08:54:20.873Z,17.44
2022-10-04T08:57:16.532Z,17.49
2022-10-04T09:00:05.802Z,17.60
2022-10-04T09:03:15.980Z,17.75
2022-10-04T09:05:57.846Z,17.88
2022-10-04T09:09:04.670Z,18.05
2022-10-04T09:12:03.669Z,18.09
2022-10-04T09:15:02.001Z,18.20
2022-10-04T09:17:46.835Z,18.39
2022-10-04T09:20:38.384Z,18.52
2022-10-04T09:23:25.272Z,18.63
2022-10-04T09:26:16.431Z,18.70
2022-10-04T09:29:32.046Z,18.86
2022-10-04T09:32:20.938Z,18.83
2022-10-04T09:35:14.975Z,18.97
2022-10-04T09:38:11.079Z,19.13
2022-10-04T09:41:03.860Z,19.23
2022-10-04T09:44:08.550Z,19.38
2022-10-04T09:46:56.696Z,19.58
2022-10-04T09:49:47.992Z,19.64
2022-10-04T09:52:42.252Z,19.81
2022-10-04T09:55:29.736Z,19.94
2022-10-04T09:58:28.843Z,20.04
2022-10-04T10:01:12.331Z,20.12
2022-10-04T10:04:06.845Z,20.26
2022-10-04T10:07:00.737Z,20.34
2022-10-04T10:09:59.374Z,20.46
2022-10-04T10:13:11.936Z,20.43
2022-10-04T10:15:59.510Z,20.54
2022-10-04T10:18:45.213Z,20.54
2022-10-04T10:21:43.056Z,20.55
2022-10-04T10:24:58.226Z,20.79
2022-10-04T10:27:48.983Z,20.76
2022-10-04T10:30:26.160Z,20.94
2022-10-04T10:33:20.429Z,20.89
2022-10-04T10:36:07.962Z,21.10
2022-10-04T10:39:00.646Z,21.16
2022-10-04T10:41:49.026Z,21.16
2022-10-04T10:44:34.617Z,21.30
2022-10-04T10:47:35.531Z,21.29
2022-10-04T10:50:25.774Z,21.41
2022-10-04T10:53:23.104Z,21.38
2022-10-04T10:56:47.950Z,21.52
2022-10-04T11:00:05.788Z,21.64
2022-10-04T11:03:14.326Z,21.58
2022-10-04T11:06:20.359Z,21.63
2022-10-04T11:09:23.413Z,21.51
2022-10-04T11:12:18.124Z,21.47
2022-10-04T11:15:22.124Z,21.41
2022-10-04T11:18:50.419Z,21.41
2022-10-04T11:21:56.008Z,21.48
2022-10-04T11:25:11.594Z,21.55
2022-10-04T11:27:57.415Z,21.53
2022-10-04T11:30:46.659Z,21.65
2022-10-04T11:33:55.841Z,21.74
2022-10-04T11:36:45.098Z,21.77
2022-10-04T11:39:47.060Z,21.93
2022-10-04T11:42:31.963Z,22.03
2022-10-04T11:45:34.026Z,22.17
2022-10-04T11:48:22.075Z,22.21
2022-10-04T11:51:21.569Z,22.32
2022-10-04T11:54:18.611Z,22.41
2022-10-04T11:57:20.577Z,22.44
2022-10-04T12:00:02.865Z,22.55
2022-10-04T12:03:02.692Z,22.69
2022-10-04T12:05:58.744Z,22.70
2022-10-04T12:08:43.991Z,22.80
2022-10-04T12:12:13.198Z,22.76
2022-10-04T12:15:04.428Z,22.83
2022-10-04T12:18:17.891Z,22.93
2022-10-04T12:21:11.828Z,23.00
2022-10-04T12:24:11.752Z,23.07
2022-10-04T12:27:02.840Z,23.17
2022-10-04T12:30:24.267Z,23.18
2022-10-04T12:33:11.261Z,23.29
2022-10-04T12:36:02.537Z,23.36
2022-10-04T12:38:50.786Z,23.40
2022-10-04T12:41:37.924Z,23.44
2022-10-04T12:44:29.300Z,23.47
2022-10-04T12:47:33.774Z,23.51
2022-10-04T12:50:18.694Z,23.62
2022-10-04T12:53:00.264Z,23.57
2022-10-04T12:56:00.668Z,23.57
2022-10-04T12:58:56.039Z,23.68
2022-10-04T13:01:37.703Z,23.71
2022-10-04T13:04:24.521Z,23.71
2022-10-04T13:07:21.270Z,23.76
2022-10-04T13:10:23.471Z,23.87
2022-10-04T13:13:25.246Z,23.86
2022-10-04T13:19:57.442Z,23.80
2022-10-04T13:22:56.443Z,23.81
2022-10-04T13:26:08.423Z,23.79
2022-10-04T13:28:50.783Z,23.78
2022-10-04T13:31:32.969Z,23.76
2022-10-04T13:34:21.178Z,23.79
2022-10-04T13:37:04.962Z,23.76
2022-10-04T13:40:07.985Z,23.75
2022-10-04T13:43:05.680Z,23.77
2022-10-04T13:45:48.604Z,23.79
2022-10-04T13:48:30.906Z,23.80
2022-10-04T13:51:20.313Z,23.77
2022-10-04T13:54:25.200Z,23.67
2022-10-04T13:57:13.270Z,23.73
2022-10-04T13:59:52.391Z,23.66
2022-10-04T14:03:03.753Z,23.61
2022-10-04T14:06:18.657Z,23.48
2022-10-04T14:09:24.796Z,23.39
2022-10-04T14:12:32.421Z,23.30
2022-10-04T14:15:31.552Z,23.24
2022-10-04T14:18:55.199Z,23.15
2022-10-04T14:22:04.744Z,23.12
2022-10-04T14:25:21.498Z,23.07
2022-10-04T14:28:20.430Z,23.02
2022-10-04T14:31:10.118Z,22.99
2022-10-04T14:34:25.440Z,23.03
2022-10-04T14:37:36.461Z,22.96
2022-10-04T14:40:34.923Z,22.77
2022-10-04T14:43:53.730Z,22.70
2022-10-04T14:46:40.427Z,22.59
2022-10-04T14:49:22.543Z,22.33
2022-10-04T14:52:18.257Z,22.37
2022-10-04T14:54:55.255Z,22.51
2022-10-04T14:57:52.558Z,22.54
2022-10-04T15:00:31.573Z,22.51
2022-10-04T15:03:28.885Z,22.47
2022-10-04T15:06:20.475Z,22.42
2022-10-04T15:09:14.936Z,22.41
2022-10-04T15:12:25.649Z,22.39
2022-10-04T15:15:17.374Z,22.37
2022-10-04T15:18:03.290Z,22.35
2022-10-04T15:20:51.321Z,22.36
2022-10-04T15:23:34.957Z,22.37
2022-10-04T15:26:39.211Z,22.28
2022-10-04T15:29:23.821Z,22.31
2022-10-04T15:32:07.662Z,22.29
2022-10-04T15:34:49.898Z,22.27
2022-10-04T15:37:34.731Z,22.24
2022-10-04T15:40:25.644Z,22.26
2022-10-04T15:43:07.396Z,22.25
2022-10-04T15:46:12.786Z,22.29
2022-10-04T15:49:00.159Z,22.15
2022-10-04T15:52:03.292Z,22.15
2022-10-04T15:55:09.858Z,22.12
2022-10-04T15:58:05.540Z,22.11
2022-10-04T16:00:49.386Z,22.03
2022-10-04T16:03:35.956Z,22.04
2022-10-04T16:06:18.096Z,21.97
2022-10-04T16:09:06.478Z,21.99
2022-10-04T16:11:55.271Z,21.98
2022-10-04T16:14:39.736Z,21.93
2022-10-04T16:17:38.481Z,21.90
2022-10-04T16:20:41.398Z,21.86
2022-10-04T16:23:27.893Z,21.76
2022-10-04T16:26:05.870Z,21.73
2022-10-04T16:28:59.755Z,21.69
2022-10-04T16:31:45.355Z,21.61
2022-10-04T16:34:48.565Z,21.59
2022-10-04T16:37:40.446Z,21.62
2022-10-04T16:40:32.010Z,21.63
2022-10-04T16:43:22.111Z,21.52
2022-10-04T16:46:18.300Z,21.51
2022-10-04T16:48:57.224Z,21.50
2022-10-04T16:52:12.346Z,21.51
2022-10-04T16:55:04.538Z,21.44
2022-10-04T16:57:39.061Z,21.33
2022-10-04T17:00:35.184Z,21.35
2022-10-04T17:03:18.711Z,21.25
2022-10-04T17:06:13.379Z,21.19
2022-10-04T17:09:03.214Z,21.19
2022-10-04T17:11:46.379Z,21.16
2022-10-04T17:14:33.701Z,21.09
2022-10-04T17:17:17.720Z,21.08
2022-10-04T17:19:55.489Z,21.05
2022-10-04T17:22:38.022Z,21.01
2022-10-04T17:25:21.435Z,21.02
2022-10-04T17:27:57.438Z,21.00
2022-10-04T17:30:42.943Z,20.97
2022-10-04T17:33:35.893Z,20.94
2022-10-04T17:36:31.750Z,20.88
2022-10-04T17:39:18.736Z,20.88
2022-10-04T17:42:02.159Z,20.91
2022-10-04T17:44:52.875Z,20.88
2022-10-04T17:47:54.693Z,20.81
2022-10-04T17:50:51.917Z,20.75
2022-10-04T17:53:47.788Z,20.70
2022-10-04T17:56:31.914Z,20.75
2022-10-04T17:59:12.438Z,20.62
2022-10-04T18:01:49.562Z,20.64
2022-10-04T18:04:26.189Z,20.57
2022-10-04T18:07:16.172Z,20.66
2022-10-04T18:09:52.578Z,20.61
2022-10-04T18:12:36.431Z,20.51
2022-10-04T18:18:44.854Z,20.40
2022-10-04T18:21:26.271Z,20.46
2022-10-04T18:24:03.455Z,20.53
2022-10-04T18:26:37.348Z,20.54
2022-10-04T18:29:16.121Z,20.38
2022-10-04T18:31:49.078Z,20.31
2022-10-04T18:34:29.730Z,20.42
2022-10-04T18:37:09.618Z,20.28
2022-10-04T18:39:55.338Z,20.35
2022-10-04T18:42:37.044Z,20.32
2022-10-04T18:45:21.305Z,20.28
2022-10-04T18:47:55.699Z,20.27
2022-10-04T18:50:43.506Z,20.31
2022-10-04T18:53:50.602Z,20.18
2022-10-04T18:56:25.431Z,20.18
2022-10-04T18:59:32.588Z,20.21
2022-10-04T19:02:14.909Z,20.20
2022-10-04T19:04:56.041Z,20.21
2022-10-04T19:07:38.863Z,20.14
2022-10-04T19:10:25.965Z,20.14
2022-10-04T19:13:11.629Z,20.16
2022-10-04T19:16:25.709Z,20.13
2022-10-04T19:19:15.250Z,20.16
2022-10-04T19:21:56.540Z,19.98
2022-10-04T19:24:58.315Z,20.03
2022-10-04T19:27:36.595Z,20.02
2022-10-04T19:30:23.410Z,20.03
2022-10-04T19:33:08.092Z,19.98
2022-10-04T19:35:56.747Z,19.96
2022-10-04T19:38:51.725Z,19.98
2022-10-04T19:41:37.871Z,19.92
2022-10-04T19:44:30.012Z,19.97
2022-10-04T19:47:18.131Z,19.94
2022-10-04T19:49:57.777Z,19.92
2022-10-04T19:52:38.941Z,19.84
2022-10-04T19:55:22.135Z,19.85
2022-10-04T19:58:03.497Z,19.93
2022-10-04T20:00:37.642Z,19.90
2022-10-04T20:03:23.455Z,19.79
2022-10-04T20:06:00.546Z,19.78
2022-10-04T20:08:59.379Z,19.82
2022-10-04T20:11:50.114Z,19.83
2022-10-04T20:14:50.962Z,19.86
2022-10-04T20:17:34.995Z,19.70
2022-10-04T20:20:09.623Z,19.78
2022-10-04T20:23:03.854Z,19.74
2022-10-04T20:26:04.044Z,19.70
2022-10-04T20:28:47.506Z,19.66
2022-10-04T20:31:55.735Z,19.68
2022-10-04T20:34:36.695Z,19.73
2022-10-04T20:37:11.097Z,19.57
2022-10-04T20:40:04.705Z,19.62
2022-10-04T20:42:39.140Z,19.52
2022-10-04T20:45:27.798Z,19.71
2022-10-04T20:48:01.343Z,19.76
2022-10-04T20:50:43.202Z,19.72
2022-10-04T20:53:22.480Z,19.73
2022-10-04T20:56:11.873Z,19.66
2022-10-04T20:58:44.970Z,19.79
2022-10-04T21:01:40.756Z,19.72
2022-10-04T21:04:15.434Z,19.66
2022-10-04T21:06:57.005Z,19.66
2022-10-04T21:09:32.995Z,19.59
2022-10-04T21:12:07.573Z,19.52
2022-10-04T21:14:40.470Z,19.63
2022-10-04T21:17:40.838Z,19.60
2022-10-04T21:20:15.938Z,19.50
2022-10-04T21:22:53.187Z,19.57
2022-10-04T21:25:34.763Z,19.52
2022-10-04T21:28:39.866Z,19.58
2022-10-04T21:31:12.703Z,19.63
2022-10-04T21:33:45.479Z,19.59
2022-10-04T21:36:18.433Z,19.54
2022-10-04T21:38:54.461Z,19.53
2022-10-04T21:41:28.582Z,19.52
2022-10-04T21:44:01.560Z,19.46
2022-10-04T21:46:34.374Z,19.47
2022-10-04T21:49:07.836Z,19.49
2022-10-04T21:51:41.314Z,19.40
2022-10-04T21:54:14.583Z,19.36
2022-10-04T21:56:49.088Z,19.34
2022-10-04T21:59:25.032Z,19.34
2022-10-04T22:01:58.054Z,19.29
2022-10-04T22:04:30.734Z,19.19
2022-10-04T22:07:03.663Z,19.32
2022-10-04T22:09:36.477Z,19.28
2022-10-04T22:12:10.698Z,19.30
2022-10-04T22:14:43.853Z,19.20
2022-10-04T22:17:16.702Z,19.23
2022-10-04T22:19:49.983Z,19.27
2022-10-04T22:22:23.345Z,19.27
2022-10-04T22:24:56.233Z,19.23
2022-10-04T22:27:31.980Z,19.21
2022-10-04T22:30:08.605Z,19.27
2022-10-04T22:32:41.531Z,19.21
2022-10-04T22:35:17.545Z,19.24
2022-10-04T22:37:51.319Z,19.29
2022-10-04T22:40:27.325Z,19.18
2022-10-04T22:43:04.288Z,19.11
2022-10-04T22:45:37.485Z,19.07
2022-10-04T22:48:16.356Z,19.03
2022-10-04T22:50:52.449Z,19.04
2022-10-04T22:53:28.911Z,19.09
2022-10-04T22:56:01.803Z,19.05
2022-10-04T22:58:36.006Z,19.05
2022-10-04T23:01:20.649Z,19.01
2022-10-04T23:03:54.216Z,19.07
2022-10-04T23:06:40.443Z,19.12
2022-10-04T23:09:13.683Z,19.08
2022-10-04T23:11:49.523Z,19.03
2022-10-04T23:14:35.667Z,19.07
2022-10-04T23:17:24.735Z,19.04
2022-10-04T23:19:59.801Z,18.96
2022-10-04T23:22:32.729Z,18.92
2022-10-04T23:25:13.461Z,18.91
2022-10-04T23:27:47.027Z,18.96
2022-10-04T23:30:23.409Z,18.97
2022-10-04T23:32:59.136Z,18.90
2022-10-04T23:35:39.938Z,18.92
2022-10-04T23:38:15.550Z,18.91
2022-10-04T23:40:48.279Z,18.94
2022-10-04T23:43:25.001Z,18.92
2022-10-04T23:45:59.552Z,18.80
2022-10-04T23:48:32.834Z,18.86
2022-10-04T23:51:05.777Z,18.84
2022-10-04T23:53:38.475Z,18.80
2022-10-04T23:56:21.935Z,18.78
2022-10-04T23:58:59.018Z,18.78
